Blue Rapids, KS (66411)

12:45 AM CDT on March 30, 2017 (GMT -0500)
N0NB | | Change Station

Elev 1318 ft 39.91 °N, 96.77 °W | Updated 3 seconds ago

Mostly Cloudy
Mostly Cloudy
44.0 °F
Feels Like 42 °F
N
4.0
Wind Variable Wind from NE
Gusts 6.0 mph

Today
High -- | Low -- °F
--% Chance of Precip.
Yesterday
High -- | Low -- °F
Precip. -- in
Pressure 29.58 in
Visibility 9.0 miles
Clouds Overcast 600 ft
Windchill 42 °F
Dew Point 43 °F
Humidity 96%
Rainfall 0.00 in
Snow Depth Not available.
7:13 AM 7:49 PM
Waxing Crescent, 6% visible
METAR KMHK 300452Z AUTO 36004KT 9SM -RA OVC006 09/09 A2958 RMK AO2 SLP016 P0009 T00940089
Pressure 29.58 in
Visibility 9.0 miles
Clouds Overcast 600 ft
Windchill 42 °F
Dew Point 43 °F
Humidity 96%
Rainfall 0.00 in
Snow Depth Not available.
7:13 AM 7:49 PM
Waxing Crescent, 6% visible
METAR KMHK 300452Z AUTO 36004KT 9SM -RA OVC006 09/09 A2958 RMK AO2 SLP016 P0009 T00940089

Get Severe Weather Alerts

Thanks for signing up!

Be on the lookout for a verification email in your inbox.

You'll start receiving the daily forecast at 8 AM.

×

10-Day Weather Forecast

Almanac

Astronomy

Mar. 30, 2017 Rise Set
Actual Time
Civil Twilight
Nautical Twilight
Astronomical Twilight
Moon
Length of Visible Light
Length of Day
Tomorrow will be .
, % of the Moon is Illuminated

Today's Extremes

State Highs State Lows

Community

WunderPhotos

Upload Photos

1,962,540 photos uploaded!

WunderBlog® & News

Nearby

Air Quality

  Air Quality AQ Index Pollutant
Not available.

Snow Depth

Station Depth Elevation

Earthquake Activity

City Distance Mag. Time & Date
Minimum magnitude displayed is 2.5.

Earthquake Activity

City Distance Mag. Time & Date
Minimum magnitude displayed is 2.5.

Coastal Water Temperatures

Place Temperature

Stations

Nearby Weather Stations

Station Location Temp. Windchill Dew Point Humidity Wind Precip. Elev Updated Type
                   

Watches & Warnings

There are currently no watches in effect.